sensor_id;sensor_type;location;lat;lon;timestamp;pressure;altitude;pressure_sealevel;temperature;humidity
39243;BME280;29823;47.404;8.566;2023-03-31T00:01:30;95987.00;;;11.71;100.00
39243;BME280;29823;47.404;8.566;2023-03-31T00:04:00;95992.31;;;11.66;100.00
39243;BME280;29823;47.404;8.566;2023-03-31T00:06:32;95992.88;;;11.68;100.00
39243;BME280;29823;47.404;8.566;2023-03-31T00:09:04;95983.53;;;11.71;100.00
39243;BME280;29823;47.404;8.566;2023-03-31T00:11:34;95982.66;;;11.65;100.00
39243;BME280;29823;47.404;8.566;2023-03-31T00:14:03;95977.31;;;11.65;100.00
39243;BME280;29823;47.404;8.566;2023-03-31T00:16:34;95972.38;;;11.57;100.00
39243;BME280;29823;47.404;8.566;2023-03-31T00:19:02;95990.19;;;11.25;100.00
39243;BME280;29823;47.404;8.566;2023-03-31T00:21:31;95988.59;;;11.08;100.00
39243;BME280;29823;47.404;8.566;2023-03-31T00:24:01;95994.78;;;10.92;100.00
39243;BME280;29823;47.404;8.566;2023-03-31T00:26:30;95991.09;;;10.76;100.00
39243;BME280;29823;47.404;8.566;2023-03-31T00:28:59;95979.72;;;10.86;100.00
39243;BME280;29823;47.404;8.566;2023-03-31T00:31:28;95983.94;;;10.82;100.00
39243;BME280;29823;47.404;8.566;2023-03-31T00:33:57;95983.16;;;10.81;100.00
39243;BME280;29823;47.404;8.566;2023-03-31T00:36:25;95989.78;;;10.79;100.00
39243;BME280;29823;47.404;8.566;2023-03-31T00:38:55;95993.34;;;10.84;100.00
39243;BME280;29823;47.404;8.566;2023-03-31T00:41:25;95981.69;;;10.74;100.00
39243;BME280;29823;47.404;8.566;2023-03-31T00:44:01;95988.09;;;10.73;100.00
39243;BME280;29823;47.404;8.566;2023-03-31T00:46:32;95974.47;;;10.74;100.00
39243;BME280;29823;47.404;8.566;2023-03-31T00:49:02;95977.13;;;10.74;100.00
39243;BME280;29823;47.404;8.566;2023-03-31T00:51:32;95961.00;;;10.86;100.00
39243;BME280;29823;47.404;8.566;2023-03-31T00:54:02;95949.41;;;10.80;100.00
39243;BME280;29823;47.404;8.566;2023-03-31T00:56:36;95961.47;;;10.83;100.00
39243;BME280;29823;47.404;8.566;2023-03-31T00:59:08;95960.63;;;10.77;100.00
39243;BME280;29823;47.404;8.566;2023-03-31T01:01:39;95952.59;;;10.77;100.00
39243;BME280;29823;47.404;8.566;2023-03-31T01:04:12;95958.16;;;10.92;100.00
39243;BME280;29823;47.404;8.566;2023-03-31T01:06:47;95947.94;;;10.89;100.00
39243;BME280;29823;47.404;8.566;2023-03-31T01:09:17;95952.81;;;10.92;100.00
39243;BME280;29823;47.404;8.566;2023-03-31T01:11:46;95949.09;;;10.93;100.00
39243;BME280;29823;47.404;8.566;2023-03-31T01:14:15;95939.69;;;10.91;100.00
39243;BME280;29823;47.404;8.566;2023-03-31T01:16:42;95944.13;;;10.85;100.00
39243;BME280;29823;47.404;8.566;2023-03-31T01:19:19;95947.47;;;10.92;100.00
39243;BME280;29823;47.404;8.566;2023-03-31T01:25:37;95932.22;;;10.93;100.00
39243;BME280;29823;47.404;8.566;2023-03-31T01:28:18;95933.09;;;10.98;100.00
39243;BME280;29823;47.404;8.566;2023-03-31T01:34:27;95924.25;;;10.98;100.00
39243;BME280;29823;47.404;8.566;2023-03-31T01:37:45;95924.31;;;11.03;100.00
39243;BME280;29823;47.404;8.566;2023-03-31T01:40:48;95908.81;;;10.83;100.00
39243;BME280;29823;47.404;8.566;2023-03-31T01:43:22;95899.50;;;10.86;100.00
39243;BME280;29823;47.404;8.566;2023-03-31T01:45:56;95896.22;;;10.79;100.00
39243;BME280;29823;47.404;8.566;2023-03-31T01:48:34;95898.38;;;10.82;100.00
39243;BME280;29823;47.404;8.566;2023-03-31T01:51:12;95892.78;;;10.83;100.00
39243;BME280;29823;47.404;8.566;2023-03-31T01:53:47;95893.22;;;10.75;100.00
39243;BME280;29823;47.404;8.566;2023-03-31T01:56:21;95887.66;;;10.60;100.00
39243;BME280;29823;47.404;8.566;2023-03-31T01:58:54;95895.53;;;10.50;100.00
39243;BME280;29823;47.404;8.566;2023-03-31T02:01:27;95885.41;;;10.52;100.00
39243;BME280;29823;47.404;8.566;2023-03-31T02:04:01;95891.72;;;10.46;100.00
39243;BME280;29823;47.404;8.566;2023-03-31T02:06:34;95883.63;;;10.41;100.00
39243;BME280;29823;47.404;8.566;2023-03-31T02:09:08;95886.13;;;10.48;100.00
39243;BME280;29823;47.404;8.566;2023-03-31T02:11:39;95877.72;;;10.39;100.00
39243;BME280;29823;47.404;8.566;2023-03-31T02:14:10;95861.25;;;10.47;100.00
39243;BME280;29823;47.404;8.566;2023-03-31T02:16:45;95856.50;;;10.49;100.00
39243;BME280;29823;47.404;8.566;2023-03-31T02:19:18;95849.72;;;10.25;100.00
39243;BME280;29823;47.404;8.566;2023-03-31T02:21:49;95846.34;;;10.13;100.00
39243;BME280;29823;47.404;8.566;2023-03-31T02:24:19;95845.06;;;10.16;100.00
39243;BME280;29823;47.404;8.566;2023-03-31T02:26:52;95820.91;;;10.27;100.00
39243;BME280;29823;47.404;8.566;2023-03-31T02:29:22;95820.78;;;10.17;100.00
39243;BME280;29823;47.404;8.566;2023-03-31T02:31:55;95817.53;;;10.15;100.00
39243;BME280;29823;47.404;8.566;2023-03-31T02:34:26;95814.84;;;10.15;100.00
39243;BME280;29823;47.404;8.566;2023-03-31T02:36:54;95814.13;;;10.03;100.00
39243;BME280;29823;47.404;8.566;2023-03-31T02:39:25;95798.91;;;9.87;100.00
39243;BME280;29823;47.404;8.566;2023-03-31T02:41:56;95816.22;;;10.01;100.00
39243;BME280;29823;47.404;8.566;2023-03-31T02:44:24;95798.09;;;10.03;100.00
39243;BME280;29823;47.404;8.566;2023-03-31T02:46:52;95789.28;;;10.03;100.00
39243;BME280;29823;47.404;8.566;2023-03-31T02:49:21;95795.03;;;10.11;100.00
39243;BME280;29823;47.404;8.566;2023-03-31T02:52:14;95792.53;;;10.21;100.00
39243;BME280;29823;47.404;8.566;2023-03-31T02:55:12;95783.53;;;10.11;100.00
39243;BME280;29823;47.404;8.566;2023-03-31T03:00:59;95759.00;;;9.97;100.00
39243;BME280;29823;47.404;8.566;2023-03-31T03:03:40;95755.34;;;10.03;100.00
39243;BME280;29823;47.404;8.566;2023-03-31T03:06:18;95759.91;;;10.03;100.00
39243;BME280;29823;47.404;8.566;2023-03-31T03:09:01;95742.44;;;9.95;100.00
39243;BME280;29823;47.404;8.566;2023-03-31T03:11:38;95735.72;;;9.93;100.00
39243;BME280;29823;47.404;8.566;2023-03-31T03:14:16;95732.16;;;9.87;100.00
39243;BME280;29823;47.404;8.566;2023-03-31T03:16:49;95715.47;;;9.97;100.00
39243;BME280;29823;47.404;8.566;2023-03-31T03:19:21;95710.09;;;9.92;100.00
39243;BME280;29823;47.404;8.566;2023-03-31T03:21:50;95693.56;;;9.95;100.00
39243;BME280;29823;47.404;8.566;2023-03-31T03:24:18;95671.53;;;10.04;100.00
39243;BME280;29823;47.404;8.566;2023-03-31T03:26:48;95648.81;;;10.23;100.00
39243;BME280;29823;47.404;8.566;2023-03-31T03:29:17;95637.25;;;10.18;100.00
39243;BME280;29823;47.404;8.566;2023-03-31T03:31:45;95639.31;;;10.32;100.00
39243;BME280;29823;47.404;8.566;2023-03-31T03:34:12;95637.31;;;10.44;100.00
39243;BME280;29823;47.404;8.566;2023-03-31T03:36:40;95620.31;;;10.55;100.00
39243;BME280;29823;47.404;8.566;2023-03-31T03:39:08;95615.38;;;10.69;100.00
39243;BME280;29823;47.404;8.566;2023-03-31T03:41:36;95618.28;;;10.67;100.00
39243;BME280;29823;47.404;8.566;2023-03-31T03:44:04;95601.50;;;10.45;100.00
39243;BME280;29823;47.404;8.566;2023-03-31T03:46:33;95594.50;;;10.39;100.00
39243;BME280;29823;47.404;8.566;2023-03-31T03:49:01;95586.13;;;10.31;100.00
39243;BME280;29823;47.404;8.566;2023-03-31T03:51:29;95571.94;;;10.30;100.00
39243;BME280;29823;47.404;8.566;2023-03-31T03:53:56;95557.47;;;10.26;100.00
39243;BME280;29823;47.404;8.566;2023-03-31T03:56:24;95537.28;;;10.09;100.00
39243;BME280;29823;47.404;8.566;2023-03-31T03:58:52;95535.09;;;10.06;100.00
39243;BME280;29823;47.404;8.566;2023-03-31T04:01:21;95542.34;;;10.10;100.00
39243;BME280;29823;47.404;8.566;2023-03-31T04:03:50;95536.56;;;9.97;100.00
39243;BME280;29823;47.404;8.566;2023-03-31T04:06:18;95546.66;;;9.90;100.00
39243;BME280;29823;47.404;8.566;2023-03-31T04:08:46;95537.44;;;10.02;100.00
39243;BME280;29823;47.404;8.566;2023-03-31T04:11:15;95523.63;;;10.05;100.00
39243;BME280;29823;47.404;8.566;2023-03-31T04:13:45;95527.81;;;10.01;100.00
39243;BME280;29823;47.404;8.566;2023-03-31T04:16:13;95516.84;;;9.98;100.00
39243;BME280;29823;47.404;8.566;2023-03-31T04:18:42;95509.28;;;9.90;100.00
39243;BME280;29823;47.404;8.566;2023-03-31T04:21:12;95512.75;;;9.90;100.00
39243;BME280;29823;47.404;8.566;2023-03-31T04:23:49;95522.38;;;9.91;100.00
39243;BME280;29823;47.404;8.566;2023-03-31T04:26:26;95514.41;;;9.96;100.00
39243;BME280;29823;47.404;8.566;2023-03-31T04:29:08;95517.09;;;9.96;100.00
39243;BME280;29823;47.404;8.566;2023-03-31T04:31:38;95489.75;;;9.84;100.00
39243;BME280;29823;47.404;8.566;2023-03-31T04:34:09;95491.03;;;9.82;100.00
39243;BME280;29823;47.404;8.566;2023-03-31T04:36:42;95478.84;;;9.91;100.00
39243;BME280;29823;47.404;8.566;2023-03-31T04:39:13;95474.97;;;10.03;100.00
39243;BME280;29823;47.404;8.566;2023-03-31T04:41:41;95468.09;;;10.07;100.00
39243;BME280;29823;47.404;8.566;2023-03-31T04:44:09;95463.75;;;10.01;100.00
39243;BME280;29823;47.404;8.566;2023-03-31T04:46:37;95451.66;;;9.94;100.00
39243;BME280;29823;47.404;8.566;2023-03-31T04:49:05;95446.59;;;9.97;100.00
39243;BME280;29823;47.404;8.566;2023-03-31T04:51:33;95461.78;;;9.92;100.00
39243;BME280;29823;47.404;8.566;2023-03-31T04:54:03;95455.00;;;10.06;100.00
39243;BME280;29823;47.404;8.566;2023-03-31T04:56:30;95427.25;;;10.12;100.00
39243;BME280;29823;47.404;8.566;2023-03-31T04:58:58;95427.06;;;10.18;100.00
39243;BME280;29823;47.404;8.566;2023-03-31T05:01:26;95417.03;;;10.35;100.00
39243;BME280;29823;47.404;8.566;2023-03-31T05:03:58;95424.97;;;10.57;100.00
39243;BME280;29823;47.404;8.566;2023-03-31T05:06:26;95423.72;;;10.74;100.00
39243;BME280;29823;47.404;8.566;2023-03-31T05:08:54;95413.66;;;10.86;100.00
39243;BME280;29823;47.404;8.566;2023-03-31T05:11:23;95406.25;;;11.03;100.00
39243;BME280;29823;47.404;8.566;2023-03-31T05:13:51;95387.56;;;11.13;100.00
39243;BME280;29823;47.404;8.566;2023-03-31T05:16:19;95376.56;;;11.15;100.00
39243;BME280;29823;47.404;8.566;2023-03-31T05:18:47;95389.16;;;11.14;100.00
39243;BME280;29823;47.404;8.566;2023-03-31T05:21:17;95398.25;;;11.13;100.00
39243;BME280;29823;47.404;8.566;2023-03-31T05:23:45;95385.56;;;10.94;100.00
39243;BME280;29823;47.404;8.566;2023-03-31T05:26:14;95390.56;;;10.70;100.00
39243;BME280;29823;47.404;8.566;2023-03-31T05:28:43;95404.47;;;10.72;100.00
39243;BME280;29823;47.404;8.566;2023-03-31T05:31:11;95382.81;;;10.74;100.00
39243;BME280;29823;47.404;8.566;2023-03-31T05:33:39;95382.28;;;10.77;100.00
39243;BME280;29823;47.404;8.566;2023-03-31T05:36:09;95401.78;;;10.72;100.00
39243;BME280;29823;47.404;8.566;2023-03-31T05:38:37;95411.94;;;10.70;100.00
39243;BME280;29823;47.404;8.566;2023-03-31T05:41:05;95427.66;;;10.67;100.00
39243;BME280;29823;47.404;8.566;2023-03-31T05:43:34;95424.75;;;10.68;100.00
39243;BME280;29823;47.404;8.566;2023-03-31T05:46:04;95442.72;;;10.73;100.00
39243;BME280;29823;47.404;8.566;2023-03-31T05:48:33;95438.16;;;10.73;100.00
39243;BME280;29823;47.404;8.566;2023-03-31T05:51:01;95443.47;;;10.68;100.00
39243;BME280;29823;47.404;8.566;2023-03-31T05:53:29;95441.38;;;10.80;100.00
39243;BME280;29823;47.404;8.566;2023-03-31T05:55:57;95414.59;;;10.65;100.00
39243;BME280;29823;47.404;8.566;2023-03-31T05:58:26;95418.41;;;10.79;100.00
39243;BME280;29823;47.404;8.566;2023-03-31T06:01:04;95417.03;;;10.77;100.00
39243;BME280;29823;47.404;8.566;2023-03-31T06:03:33;95411.38;;;10.68;100.00
39243;BME280;29823;47.404;8.566;2023-03-31T06:06:02;95415.69;;;10.74;100.00
39243;BME280;29823;47.404;8.566;2023-03-31T06:08:31;95413.91;;;10.85;100.00
39243;BME280;29823;47.404;8.566;2023-03-31T06:10:59;95408.31;;;10.91;100.00
39243;BME280;29823;47.404;8.566;2023-03-31T06:13:27;95419.00;;;10.86;100.00
39243;BME280;29823;47.404;8.566;2023-03-31T06:15:56;95427.56;;;10.88;100.00
39243;BME280;29823;47.404;8.566;2023-03-31T06:18:26;95428.69;;;10.97;100.00
39243;BME280;29823;47.404;8.566;2023-03-31T06:20:55;95423.31;;;10.97;100.00
39243;BME280;29823;47.404;8.566;2023-03-31T06:23:24;95426.22;;;10.91;100.00
39243;BME280;29823;47.404;8.566;2023-03-31T06:25:52;95435.97;;;11.12;100.00
39243;BME280;29823;47.404;8.566;2023-03-31T06:28:20;95429.31;;;11.19;100.00
39243;BME280;29823;47.404;8.566;2023-03-31T06:30:48;95434.25;;;11.47;100.00
39243;BME280;29823;47.404;8.566;2023-03-31T06:33:16;95428.91;;;11.57;100.00
39243;BME280;29823;47.404;8.566;2023-03-31T06:35:45;95438.25;;;11.50;100.00
39243;BME280;29823;47.404;8.566;2023-03-31T06:38:13;95435.38;;;11.66;100.00
39243;BME280;29823;47.404;8.566;2023-03-31T06:40:41;95431.66;;;11.62;100.00
39243;BME280;29823;47.404;8.566;2023-03-31T06:43:08;95437.81;;;11.78;100.00
39243;BME280;29823;47.404;8.566;2023-03-31T06:45:36;95427.69;;;11.95;100.00
39243;BME280;29823;47.404;8.566;2023-03-31T06:48:05;95436.56;;;12.10;100.00
39243;BME280;29823;47.404;8.566;2023-03-31T06:50:36;95436.28;;;12.17;100.00
39243;BME280;29823;47.404;8.566;2023-03-31T06:53:06;95444.88;;;12.29;100.00
39243;BME280;29823;47.404;8.566;2023-03-31T06:55:34;95439.78;;;12.37;100.00
39243;BME280;29823;47.404;8.566;2023-03-31T06:58:02;95455.59;;;12.49;100.00
39243;BME280;29823;47.404;8.566;2023-03-31T07:00:31;95444.59;;;12.70;100.00
39243;BME280;29823;47.404;8.566;2023-03-31T07:02:59;95460.13;;;12.88;100.00
39243;BME280;29823;47.404;8.566;2023-03-31T07:05:27;95465.50;;;12.78;100.00
39243;BME280;29823;47.404;8.566;2023-03-31T07:07:56;95467.09;;;12.79;100.00
39243;BME280;29823;47.404;8.566;2023-03-31T07:10:28;95459.84;;;12.85;100.00
39243;BME280;29823;47.404;8.566;2023-03-31T07:12:56;95460.13;;;13.08;100.00
39243;BME280;29823;47.404;8.566;2023-03-31T07:15:25;95427.91;;;13.08;100.00
39243;BME280;29823;47.404;8.566;2023-03-31T07:17:55;95446.69;;;13.13;100.00
39243;BME280;29823;47.404;8.566;2023-03-31T07:20:28;95451.50;;;13.16;100.00
39243;BME280;29823;47.404;8.566;2023-03-31T07:22:58;95458.41;;;13.37;100.00
39243;BME280;29823;47.404;8.566;2023-03-31T07:25:27;95457.28;;;13.53;100.00
39243;BME280;29823;47.404;8.566;2023-03-31T07:27:55;95448.63;;;13.66;100.00
39243;BME280;29823;47.404;8.566;2023-03-31T07:30:22;95432.41;;;13.81;100.00
39243;BME280;29823;47.404;8.566;2023-03-31T07:32:51;95438.34;;;13.83;100.00
39243;BME280;29823;47.404;8.566;2023-03-31T07:35:20;95427.00;;;13.91;100.00
39243;BME280;29823;47.404;8.566;2023-03-31T07:37:49;95435.78;;;14.07;100.00
39243;BME280;29823;47.404;8.566;2023-03-31T07:40:19;95446.59;;;13.97;100.00
39243;BME280;29823;47.404;8.566;2023-03-31T07:42:50;95460.78;;;14.02;100.00
39243;BME280;29823;47.404;8.566;2023-03-31T07:45:19;95460.53;;;13.99;100.00
39243;BME280;29823;47.404;8.566;2023-03-31T07:47:48;95449.25;;;14.02;100.00
39243;BME280;29823;47.404;8.566;2023-03-31T07:50:17;95444.28;;;14.24;100.00
39243;BME280;29823;47.404;8.566;2023-03-31T07:52:45;95436.94;;;14.34;100.00
39243;BME280;29823;47.404;8.566;2023-03-31T07:55:13;95429.88;;;14.43;100.00
39243;BME280;29823;47.404;8.566;2023-03-31T07:57:42;95437.84;;;14.58;100.00
39243;BME280;29823;47.404;8.566;2023-03-31T08:00:15;95441.13;;;14.50;100.00
39243;BME280;29823;47.404;8.566;2023-03-31T08:02:43;95430.94;;;14.47;100.00
39243;BME280;29823;47.404;8.566;2023-03-31T08:05:12;95434.84;;;14.31;100.00
39243;BME280;29823;47.404;8.566;2023-03-31T08:07:42;95418.66;;;14.36;100.00
39243;BME280;29823;47.404;8.566;2023-03-31T08:10:14;95411.50;;;14.55;100.00
39243;BME280;29823;47.404;8.566;2023-03-31T08:12:43;95419.09;;;14.48;100.00
39243;BME280;29823;47.404;8.566;2023-03-31T08:15:12;95409.16;;;14.44;100.00
39243;BME280;29823;47.404;8.566;2023-03-31T08:17:41;95436.31;;;14.47;100.00
39243;BME280;29823;47.404;8.566;2023-03-31T08:20:10;95431.72;;;14.48;100.00
39243;BME280;29823;47.404;8.566;2023-03-31T08:22:38;95440.88;;;14.80;100.00
39243;BME280;29823;47.404;8.566;2023-03-31T08:25:08;95447.59;;;16.00;97.14
39243;BME280;29823;47.404;8.566;2023-03-31T08:27:38;95436.25;;;17.31;81.71
39243;BME280;29823;47.404;8.566;2023-03-31T08:30:08;95439.75;;;17.05;83.16
39243;BME280;29823;47.404;8.566;2023-03-31T08:32:38;95437.50;;;16.93;80.63
39243;BME280;29823;47.404;8.566;2023-03-31T08:35:07;95437.25;;;16.44;85.12
39243;BME280;29823;47.404;8.566;2023-03-31T08:37:35;95448.31;;;16.24;86.79
39243;BME280;29823;47.404;8.566;2023-03-31T08:40:04;95454.16;;;16.13;87.31
39243;BME280;29823;47.404;8.566;2023-03-31T08:42:38;95450.41;;;15.90;90.75
39243;BME280;29823;47.404;8.566;2023-03-31T08:45:14;95445.88;;;15.67;90.35
39243;BME280;29823;47.404;8.566;2023-03-31T08:47:45;95447.53;;;15.63;94.61
39243;BME280;29823;47.404;8.566;2023-03-31T08:50:16;95444.81;;;15.87;94.79
39243;BME280;29823;47.404;8.566;2023-03-31T08:52:48;95447.09;;;15.98;93.82
39243;BME280;29823;47.404;8.566;2023-03-31T08:55:22;95435.34;;;15.89;96.07
39243;BME280;29823;47.404;8.566;2023-03-31T08:57:59;95440.22;;;15.87;92.46
39243;BME280;29823;47.404;8.566;2023-03-31T09:00:33;95432.91;;;15.69;98.68
39243;BME280;29823;47.404;8.566;2023-03-31T09:03:12;95425.97;;;15.63;100.00
39243;BME280;29823;47.404;8.566;2023-03-31T09:05:49;95420.91;;;16.36;93.71
39243;BME280;29823;47.404;8.566;2023-03-31T09:08:32;95438.06;;;16.77;92.61
39243;BME280;29823;47.404;8.566;2023-03-31T09:11:17;95434.88;;;16.88;89.17
39243;BME280;29823;47.404;8.566;2023-03-31T09:14:11;95443.44;;;16.63;88.11
39243;BME280;29823;47.404;8.566;2023-03-31T09:16:47;95450.50;;;16.22;86.17
39243;BME280;29823;47.404;8.566;2023-03-31T09:19:22;95410.22;;;15.52;92.05
39243;BME280;29823;47.404;8.566;2023-03-31T09:21:56;95412.81;;;15.38;97.12
39243;BME280;29823;47.404;8.566;2023-03-31T09:24:28;95427.97;;;15.29;97.38
39243;BME280;29823;47.404;8.566;2023-03-31T09:27:00;95393.25;;;15.28;94.23
39243;BME280;29823;47.404;8.566;2023-03-31T09:29:35;95379.03;;;15.22;96.43
39243;BME280;29823;47.404;8.566;2023-03-31T09:32:13;95377.31;;;15.31;90.74
39243;BME280;29823;47.404;8.566;2023-03-31T09:34:43;95384.25;;;15.79;88.91
39243;BME280;29823;47.404;8.566;2023-03-31T09:37:12;95366.25;;;18.55;76.48
39243;BME280;29823;47.404;8.566;2023-03-31T09:39:40;95390.22;;;19.61;68.31
39243;BME280;29823;47.404;8.566;2023-03-31T09:42:11;95383.81;;;21.36;59.15
39243;BME280;29823;47.404;8.566;2023-03-31T09:44:42;95385.03;;;19.04;63.38
39243;BME280;29823;47.404;8.566;2023-03-31T09:47:15;95379.66;;;18.02;64.21
39243;BME280;29823;47.404;8.566;2023-03-31T09:49:47;95398.88;;;17.65;64.78
39243;BME280;29823;47.404;8.566;2023-03-31T09:52:26;95386.09;;;17.93;64.50
39243;BME280;29823;47.404;8.566;2023-03-31T09:54:58;95362.88;;;17.92;65.59
39243;BME280;29823;47.404;8.566;2023-03-31T09:57:28;95360.91;;;18.41;70.31
39243;BME280;29823;47.404;8.566;2023-03-31T10:00:05;95364.09;;;19.65;66.50
39243;BME280;29823;47.404;8.566;2023-03-31T10:02:43;95371.84;;;20.31;65.06
39243;BME280;29823;47.404;8.566;2023-03-31T10:05:25;95368.66;;;17.99;74.82
39243;BME280;29823;47.404;8.566;2023-03-31T10:10:56;95380.56;;;16.76;85.42
39243;BME280;29823;47.404;8.566;2023-03-31T10:13:28;95366.28;;;15.93;91.28
39243;BME280;29823;47.404;8.566;2023-03-31T10:16:02;95366.91;;;16.22;90.81
39243;BME280;29823;47.404;8.566;2023-03-31T10:18:33;95370.28;;;16.14;90.98
39243;BME280;29823;47.404;8.566;2023-03-31T10:21:04;95365.25;;;15.71;96.35
39243;BME280;29823;47.404;8.566;2023-03-31T10:23:34;95348.16;;;16.12;95.96
39243;BME280;29823;47.404;8.566;2023-03-31T10:26:03;95332.56;;;16.28;93.49
39243;BME280;29823;47.404;8.566;2023-03-31T10:28:33;95326.47;;;16.54;90.12
39243;BME280;29823;47.404;8.566;2023-03-31T10:31:03;95321.38;;;16.66;90.25
39243;BME280;29823;47.404;8.566;2023-03-31T10:33:32;95282.09;;;17.01;86.85
39243;BME280;29823;47.404;8.566;2023-03-31T10:36:07;95303.03;;;18.90;74.67
39243;BME280;29823;47.404;8.566;2023-03-31T10:38:37;95307.91;;;20.59;62.03
39243;BME280;29823;47.404;8.566;2023-03-31T10:41:08;95330.50;;;19.27;66.72
39243;BME280;29823;47.404;8.566;2023-03-31T10:43:38;95308.25;;;18.25;69.57
39243;BME280;29823;47.404;8.566;2023-03-31T10:46:08;95308.09;;;17.10;76.27
39243;BME280;29823;47.404;8.566;2023-03-31T10:48:38;95288.44;;;16.37;85.79
39243;BME280;29823;47.404;8.566;2023-03-31T10:51:14;95285.28;;;15.85;97.83
39243;BME280;29823;47.404;8.566;2023-03-31T10:53:46;95310.66;;;15.23;100.00
39243;BME280;29823;47.404;8.566;2023-03-31T10:56:27;95305.09;;;14.44;100.00
39243;BME280;29823;47.404;8.566;2023-03-31T10:59:16;95294.75;;;13.99;100.00
39243;BME280;29823;47.404;8.566;2023-03-31T11:02:12;95305.16;;;13.72;100.00
39243;BME280;29823;47.404;8.566;2023-03-31T11:04:51;95320.19;;;13.73;100.00
39243;BME280;29823;47.404;8.566;2023-03-31T11:07:34;95316.84;;;13.53;100.00
39243;BME280;29823;47.404;8.566;2023-03-31T11:10:20;95333.66;;;13.20;100.00
39243;BME280;29823;47.404;8.566;2023-03-31T11:12:53;95318.97;;;13.07;100.00
39243;BME280;29823;47.404;8.566;2023-03-31T11:15:29;95316.69;;;13.34;100.00
39243;BME280;29823;47.404;8.566;2023-03-31T11:18:10;95322.09;;;15.34;100.00
39243;BME280;29823;47.404;8.566;2023-03-31T11:20:50;95309.81;;;16.34;100.00
39243;BME280;29823;47.404;8.566;2023-03-31T11:23:31;95313.97;;;15.57;100.00
39243;BME280;29823;47.404;8.566;2023-03-31T11:26:04;95309.03;;;16.15;100.00
39243;BME280;29823;47.404;8.566;2023-03-31T11:28:49;95291.59;;;15.38;100.00
39243;BME280;29823;47.404;8.566;2023-03-31T11:31:26;95273.06;;;15.37;100.00
39243;BME280;29823;47.404;8.566;2023-03-31T11:34:07;95287.22;;;14.58;100.00
39243;BME280;29823;47.404;8.566;2023-03-31T11:36:49;95277.78;;;14.32;100.00
39243;BME280;29823;47.404;8.566;2023-03-31T11:39:34;95290.28;;;14.13;100.00
39243;BME280;29823;47.404;8.566;2023-03-31T11:42:09;95286.47;;;14.24;98.40
39243;BME280;29823;47.404;8.566;2023-03-31T11:44:43;95278.44;;;14.19;100.00
39243;BME280;29823;47.404;8.566;2023-03-31T11:47:16;95271.06;;;14.01;100.00
39243;BME280;29823;47.404;8.566;2023-03-31T11:49:50;95257.09;;;15.77;89.81
39243;BME280;29823;47.404;8.566;2023-03-31T11:52:27;95245.63;;;16.31;75.00
39243;BME280;29823;47.404;8.566;2023-03-31T11:54:59;95227.47;;;16.36;85.23
39243;BME280;29823;47.404;8.566;2023-03-31T11:57:32;95234.56;;;15.87;74.17
39243;BME280;29823;47.404;8.566;2023-03-31T12:00:06;95236.13;;;15.37;73.04
39243;BME280;29823;47.404;8.566;2023-03-31T12:02:43;95249.28;;;15.20;70.75
39243;BME280;29823;47.404;8.566;2023-03-31T12:05:13;95253.34;;;14.99;74.07
39243;BME280;29823;47.404;8.566;2023-03-31T12:07:46;95258.34;;;14.87;64.49
39243;BME280;29823;47.404;8.566;2023-03-31T12:10:19;95275.25;;;14.69;62.93
39243;BME280;29823;47.404;8.566;2023-03-31T12:12:52;95285.94;;;14.51;67.22
39243;BME280;29823;47.404;8.566;2023-03-31T12:15:23;95318.00;;;14.14;84.07
39243;BME280;29823;47.404;8.566;2023-03-31T12:17:58;95347.63;;;13.65;96.79
39243;BME280;29823;47.404;8.566;2023-03-31T12:20:31;95359.53;;;13.49;95.94
39243;BME280;29823;47.404;8.566;2023-03-31T12:23:01;95400.44;;;13.31;93.98
39243;BME280;29823;47.404;8.566;2023-03-31T12:25:40;95420.09;;;13.17;94.96
39243;BME280;29823;47.404;8.566;2023-03-31T12:28:11;95392.56;;;12.76;100.00
39243;BME280;29823;47.404;8.566;2023-03-31T12:30:40;95414.97;;;11.50;100.00
39243;BME280;29823;47.404;8.566;2023-03-31T12:33:14;95426.91;;;11.23;100.00
39243;BME280;29823;47.404;8.566;2023-03-31T12:35:53;95411.75;;;11.48;100.00
39243;BME280;29823;47.404;8.566;2023-03-31T12:38:36;95378.97;;;14.52;100.00
39243;BME280;29823;47.404;8.566;2023-03-31T12:41:14;95377.22;;;15.18;100.00
39243;BME280;29823;47.404;8.566;2023-03-31T12:43:54;95386.75;;;15.34;100.00
39243;BME280;29823;47.404;8.566;2023-03-31T12:46:41;95374.34;;;14.29;100.00
39243;BME280;29823;47.404;8.566;2023-03-31T12:49:32;95400.41;;;13.41;100.00
39243;BME280;29823;47.404;8.566;2023-03-31T12:52:07;95388.06;;;13.84;100.00
39243;BME280;29823;47.404;8.566;2023-03-31T12:57:52;95374.06;;;13.48;100.00
39243;BME280;29823;47.404;8.566;2023-03-31T13:00:24;95366.13;;;14.10;100.00
39243;BME280;29823;47.404;8.566;2023-03-31T13:05:59;95365.78;;;14.55;100.00
39243;BME280;29823;47.404;8.566;2023-03-31T13:08:50;95370.41;;;14.50;98.55
39243;BME280;29823;47.404;8.566;2023-03-31T13:11:20;95369.25;;;14.27;100.00
39243;BME280;29823;47.404;8.566;2023-03-31T13:13:58;95354.75;;;14.23;100.00
39243;BME280;29823;47.404;8.566;2023-03-31T13:16:27;95343.50;;;14.16;98.68
39243;BME280;29823;47.404;8.566;2023-03-31T13:18:56;95348.91;;;13.78;94.09
39243;BME280;29823;47.404;8.566;2023-03-31T13:21:24;95349.00;;;13.63;96.18
39243;BME280;29823;47.404;8.566;2023-03-31T13:23:58;95358.25;;;13.42;100.00
39243;BME280;29823;47.404;8.566;2023-03-31T13:26:38;95348.25;;;12.89;100.00
39243;BME280;29823;47.404;8.566;2023-03-31T13:29:37;95344.50;;;12.90;100.00
39243;BME280;29823;47.404;8.566;2023-03-31T13:32:24;95358.44;;;12.82;100.00
39243;BME280;29823;47.404;8.566;2023-03-31T13:34:54;95343.22;;;12.67;100.00
39243;BME280;29823;47.404;8.566;2023-03-31T13:37:44;95332.75;;;12.66;100.00
39243;BME280;29823;47.404;8.566;2023-03-31T13:40:25;95333.03;;;12.69;100.00